createdAt,value
2023-02-11T00:00:21.035Z,103319.22
2023-02-11T00:02:48.105Z,103328.22
2023-02-11T00:05:14.949Z,103334.38
2023-02-11T00:07:41.677Z,103323.00
2023-02-11T00:10:09.202Z,103321.47
2023-02-11T00:12:36.874Z,103325.00
2023-02-11T00:15:04.604Z,103317.94
2023-02-11T00:17:32.255Z,103322.88
2023-02-11T00:19:58.830Z,103317.09
2023-02-11T00:22:25.290Z,103323.72
2023-02-11T00:24:51.692Z,103324.31
2023-02-11T00:27:18.108Z,103321.09
2023-02-11T00:29:44.501Z,103328.91
2023-02-11T00:32:11.109Z,103334.13
2023-02-11T00:34:38.113Z,103352.84
2023-02-11T00:37:05.056Z,103341.84
2023-02-11T00:39:31.447Z,103350.16
2023-02-11T00:41:58.534Z,103345.75
2023-02-11T00:44:25.313Z,103331.41
2023-02-11T00:46:51.830Z,103341.47
2023-02-11T00:49:18.654Z,103343.97
2023-02-11T00:51:45.101Z,103337.94
2023-02-11T00:54:11.587Z,103328.22
2023-02-11T00:56:38.026Z,103318.03
2023-02-11T00:59:04.560Z,103300.88
2023-02-11T01:01:31.066Z,103290.56
2023-02-11T01:03:57.555Z,103300.75
2023-02-11T01:06:23.934Z,103298.03
2023-02-11T01:08:50.574Z,103300.50
2023-02-11T01:11:19.767Z,103297.19
2023-02-11T01:13:46.959Z,103293.88
2023-02-11T01:16:13.974Z,103301.38
2023-02-11T01:18:41.287Z,103313.44
2023-02-11T01:21:07.817Z,103315.44
2023-02-11T01:23:34.277Z,103332.38
2023-02-11T01:26:00.754Z,103327.63
2023-02-11T01:28:29.032Z,103332.03
2023-02-11T01:30:56.319Z,103338.06
2023-02-11T01:33:23.933Z,103340.75
2023-02-11T01:35:50.992Z,103333.66
2023-02-11T01:38:23.312Z,103328.22
2023-02-11T01:41:02.988Z,103322.06
2023-02-11T01:43:33.419Z,103327.16
2023-02-11T01:46:17.315Z,103317.00
2023-02-11T01:48:47.480Z,103315.31
2023-02-11T01:51:19.279Z,103338.28
2023-02-11T01:53:47.577Z,103331.66
2023-02-11T01:56:15.409Z,103324.09
2023-02-11T01:58:45.171Z,103328.22
2023-02-11T02:01:18.135Z,103319.81
2023-02-11T02:03:48.676Z,103325.38
2023-02-11T02:06:26.345Z,103303.81
2023-02-11T02:09:00.873Z,103297.09
2023-02-11T02:11:27.483Z,103289.38
2023-02-11T02:13:53.977Z,103293.88
2023-02-11T02:16:22.503Z,103287.25
2023-02-11T02:19:26.852Z,103287.97
2023-02-11T02:22:26.984Z,103288.91
2023-02-11T02:25:19.067Z,103289.16
2023-02-11T02:28:20.563Z,103278.00
2023-02-11T02:31:07.988Z,103284.19
2023-02-11T02:33:53.124Z,103280.16
2023-02-11T02:36:37.959Z,103278.72
2023-02-11T02:39:14.512Z,103281.81
2023-02-11T02:41:42.151Z,103272.69
2023-02-11T02:44:08.889Z,103279.66
2023-02-11T02:46:36.398Z,103271.41
2023-02-11T02:49:03.347Z,103280.28
2023-02-11T02:51:47.653Z,103273.16
2023-02-11T02:54:36.329Z,103267.97
2023-02-11T02:57:14.744Z,103265.47
2023-02-11T02:59:57.648Z,103251.72
2023-02-11T03:02:33.426Z,103255.31
2023-02-11T03:05:11.672Z,103238.38
2023-02-11T03:07:45.045Z,103244.28
2023-02-11T03:10:21.399Z,103254.59
2023-02-11T03:12:48.625Z,103255.03
2023-02-11T03:15:18.204Z,103246.63
2023-02-11T03:17:47.560Z,103249.63
2023-02-11T03:20:18.996Z,103263.34
2023-02-11T03:22:57.869Z,103247.34
2023-02-11T03:25:32.871Z,103267.72
2023-02-11T03:28:14.531Z,103265.00
2023-02-11T03:30:57.206Z,103251.25
2023-02-11T03:33:33.179Z,103253.03
2023-02-11T03:36:07.769Z,103240.25
2023-02-11T03:38:38.038Z,103247.25
2023-02-11T03:41:07.820Z,103248.19
2023-02-11T03:43:41.879Z,103253.16
2023-02-11T03:46:10.917Z,103235.75
2023-02-11T03:48:42.016Z,103266.88
2023-02-11T03:51:12.349Z,103277.09
2023-02-11T03:53:42.231Z,103282.03
2023-02-11T03:56:12.990Z,103279.56
2023-02-11T03:58:39.387Z,103279.31
2023-02-11T04:01:07.270Z,103264.28
2023-02-11T04:03:33.655Z,103281.94
2023-02-11T04:06:00.013Z,103270.31
2023-02-11T04:08:26.348Z,103266.44
2023-02-11T04:10:52.628Z,103279.44
2023-02-11T04:13:18.974Z,103268.19
2023-02-11T04:15:47.267Z,103259.66
2023-02-11T04:18:15.084Z,103257.44
2023-02-11T04:20:41.452Z,103264.28
2023-02-11T04:23:07.934Z,103265.47
2023-02-11T04:25:34.418Z,103277.31
2023-02-11T04:28:00.892Z,103267.34
2023-02-11T04:30:27.475Z,103274.00
2023-02-11T04:32:54.103Z,103263.34
2023-02-11T04:35:21.037Z,103273.16
2023-02-11T04:37:47.455Z,103258.00
2023-02-11T04:40:13.786Z,103270.56
2023-02-11T04:42:40.655Z,103265.00
2023-02-11T04:45:07.404Z,103280.16
2023-02-11T04:47:34.391Z,103281.09
2023-02-11T04:50:00.701Z,103261.53
2023-02-11T04:52:27.166Z,103257.53
2023-02-11T04:54:53.557Z,103270.22
2023-02-11T04:57:19.925Z,103265.13
2023-02-11T04:59:46.383Z,103273.53
2023-02-11T05:02:12.823Z,103277.78
2023-02-11T05:04:39.341Z,103258.47
2023-02-11T05:07:05.825Z,103272.56
2023-02-11T05:09:32.355Z,103260.00
2023-02-11T05:11:58.756Z,103275.41
2023-02-11T05:14:25.139Z,103269.13
2023-02-11T05:16:51.571Z,103271.84
2023-02-11T05:19:18.083Z,103276.84
2023-02-11T05:22:00.299Z,103277.78
2023-02-11T05:24:28.491Z,103276.84
2023-02-11T05:26:54.891Z,103276.00
2023-02-11T05:29:21.285Z,103282.75
2023-02-11T05:31:47.831Z,103276.13
2023-02-11T05:34:14.368Z,103269.97
2023-02-11T05:36:41.014Z,103279.31
2023-02-11T05:39:07.397Z,103284.19
2023-02-11T05:41:33.782Z,103270.66
2023-02-11T05:44:00.180Z,103274.25
2023-02-11T05:46:26.873Z,103269.97
2023-02-11T05:48:53.395Z,103287.72
2023-02-11T05:51:19.800Z,103283.22
2023-02-11T05:53:46.273Z,103298.84
2023-02-11T05:56:12.752Z,103299.56
2023-02-11T05:58:39.129Z,103297.66
2023-02-11T06:01:05.598Z,103299.44
2023-02-11T06:03:32.107Z,103291.88
2023-02-11T06:05:58.660Z,103291.41
2023-02-11T06:08:25.137Z,103295.78
2023-02-11T06:10:51.553Z,103294.84
2023-02-11T06:13:17.979Z,103289.63
2023-02-11T06:15:44.429Z,103278.72
2023-02-11T06:18:11.012Z,103284.31
2023-02-11T06:20:38.489Z,103292.13
2023-02-11T06:23:04.783Z,103293.41
2023-02-11T06:25:31.076Z,103288.19
2023-02-11T06:27:57.422Z,103287.63
2023-02-11T06:30:23.835Z,103280.75
2023-02-11T06:32:50.155Z,103286.31
2023-02-11T06:35:16.678Z,103277.22
2023-02-11T06:37:43.313Z,103287.25
2023-02-11T06:40:11.303Z,103279.66
2023-02-11T06:42:38.122Z,103284.66
2023-02-11T06:45:04.922Z,103292.00
2023-02-11T06:47:31.770Z,103275.06
2023-02-11T06:49:58.084Z,103278.97
2023-02-11T06:52:24.473Z,103285.59
2023-02-11T06:54:50.811Z,103276.84
2023-02-11T06:57:17.175Z,103273.06
2023-02-11T06:59:43.539Z,103277.31
2023-02-11T07:02:10.623Z,103278.84
2023-02-11T07:04:37.081Z,103288.19
2023-02-11T07:07:03.482Z,103294.84
2023-02-11T07:09:29.883Z,103297.69
2023-02-11T07:11:56.243Z,103295.44
2023-02-11T07:14:22.648Z,103294.13
2023-02-11T07:16:49.003Z,103297.56
2023-02-11T07:19:15.344Z,103293.41
2023-02-11T07:21:42.134Z,103282.50
2023-02-11T07:24:11.229Z,103295.53
2023-02-11T07:26:38.139Z,103302.06
2023-02-11T07:29:04.878Z,103301.94
2023-02-11T07:31:31.716Z,103300.97
2023-02-11T07:34:00.859Z,103285.47
2023-02-11T07:36:29.923Z,103310.00
2023-02-11T07:38:56.530Z,103315.91
2023-02-11T07:41:24.460Z,103317.44
2023-02-11T07:43:51.585Z,103303.72
2023-02-11T07:46:21.158Z,103319.69
2023-02-11T07:48:47.774Z,103302.78
2023-02-11T07:51:25.109Z,103308.31
2023-02-11T07:53:52.047Z,103313.97
2023-02-11T07:56:20.261Z,103300.84
2023-02-11T07:58:46.667Z,103320.28
2023-02-11T08:01:16.904Z,103309.72
2023-02-11T08:03:43.499Z,103310.66
2023-02-11T08:06:12.696Z,103318.69
2023-02-11T08:08:39.701Z,103305.91
2023-02-11T08:11:08.245Z,103311.47
2023-02-11T08:13:34.885Z,103299.13
2023-02-11T08:16:01.341Z,103305.66
2023-02-11T08:18:27.883Z,103308.84
2023-02-11T08:20:54.282Z,103313.41
2023-02-11T08:23:20.655Z,103304.78
2023-02-11T08:25:47.069Z,103315.41
2023-02-11T08:28:13.588Z,103318.72
2023-02-11T08:30:40.025Z,103315.88
2023-02-11T08:33:06.413Z,103304.97
2023-02-11T08:35:35.238Z,103333.38
2023-02-11T08:38:01.643Z,103323.31
2023-02-11T08:40:28.022Z,103324.50
2023-02-11T08:42:54.367Z,103334.44
2023-02-11T08:45:20.743Z,103352.91
2023-02-11T08:47:47.109Z,103332.53
2023-02-11T08:50:13.598Z,103353.34
2023-02-11T08:52:39.941Z,103353.81
2023-02-11T08:55:06.738Z,103349.41
2023-02-11T08:57:33.107Z,103358.28
2023-02-11T08:59:59.413Z,103365.16
2023-02-11T09:02:25.899Z,103367.53
2023-02-11T09:04:52.278Z,103367.94
2023-02-11T09:07:18.653Z,103357.06
2023-02-11T09:09:44.965Z,103358.47
2023-02-11T09:12:11.307Z,103361.97
2023-02-11T09:14:37.646Z,103375.75
2023-02-11T09:17:04.102Z,103352.34
2023-02-11T09:19:30.463Z,103365.28
2023-02-11T09:21:57.066Z,103377.22
2023-02-11T09:24:23.383Z,103365.38
2023-02-11T09:26:49.751Z,103372.28
2023-02-11T09:29:16.109Z,103372.16
2023-02-11T09:31:42.559Z,103364.31
2023-02-11T09:34:10.875Z,103385.03
2023-02-11T09:36:39.472Z,103377.13
2023-02-11T09:39:11.538Z,103376.63
2023-02-11T09:41:56.407Z,103387.69
2023-02-11T09:44:26.124Z,103387.41
2023-02-11T09:46:59.662Z,103389.63
2023-02-11T09:50:00.787Z,103387.00
2023-02-11T09:52:37.268Z,103391.00
2023-02-11T09:55:14.088Z,103403.41
2023-02-11T09:57:40.611Z,103401.63
2023-02-11T10:00:23.036Z,103420.81
2023-02-11T10:03:00.798Z,103420.53
2023-02-11T10:06:18.305Z,103425.22
2023-02-11T10:09:31.022Z,103438.22
2023-02-11T10:12:32.311Z,103441.56
2023-02-11T10:15:21.517Z,103448.47
2023-02-11T10:18:06.715Z,103446.00
2023-02-11T10:20:38.552Z,103446.72
2023-02-11T10:23:15.506Z,103440.53
2023-02-11T10:25:48.863Z,103449.47
2023-02-11T10:28:20.900Z,103454.72
2023-02-11T10:31:04.905Z,103449.25
2023-02-11T10:33:59.081Z,103455.56
2023-02-11T10:36:30.934Z,103454.63
2023-02-11T10:39:02.222Z,103447.56
2023-02-11T10:41:36.659Z,103443.84
2023-02-11T10:44:06.907Z,103449.66
2023-02-11T10:46:37.318Z,103476.66
2023-02-11T10:49:03.742Z,103463.56
2023-02-11T10:51:32.625Z,103469.66
2023-02-11T10:54:16.765Z,103474.22
2023-02-11T10:56:45.863Z,103474.06
2023-02-11T10:59:41.301Z,103470.34
2023-02-11T11:02:23.860Z,103478.91
2023-02-11T11:04:56.694Z,103477.22
2023-02-11T11:07:27.389Z,103470.06
2023-02-11T11:10:07.321Z,103467.88
2023-02-11T11:12:45.904Z,103474.22
2023-02-11T11:15:32.448Z,103482.94
2023-02-11T11:18:24.597Z,103479.47
2023-02-11T11:20:58.727Z,103484.56
2023-02-11T11:23:26.039Z,103476.13
2023-02-11T11:26:19.233Z,103488.81
2023-02-11T11:29:21.497Z,103489.94
2023-02-11T11:31:52.433Z,103485.13
2023-02-11T11:34:31.920Z,103478.31
2023-02-11T11:37:00.820Z,103491.16
2023-02-11T11:39:32.848Z,103483.81
2023-02-11T11:42:02.096Z,103468.06
2023-02-11T11:45:01.414Z,103479.91
2023-02-11T11:47:59.360Z,103466.63
2023-02-11T11:50:39.829Z,103457.03
2023-02-11T11:53:20.735Z,103460.75
2023-02-11T11:55:59.593Z,103475.31
2023-02-11T11:58:28.963Z,103472.25
2023-02-11T12:01:33.007Z,103471.63
2023-02-11T12:04:27.061Z,103477.22
2023-02-11T12:07:10.563Z,103463.69
2023-02-11T12:09:45.580Z,103456.03
2023-02-11T12:12:34.665Z,103444.44
2023-02-11T12:15:28.803Z,103444.59
2023-02-11T12:18:06.148Z,103441.50
2023-02-11T12:20:50.355Z,103457.91
2023-02-11T12:23:34.640Z,103458.66
2023-02-11T12:26:06.738Z,103467.88
2023-02-11T12:29:13.891Z,103468.13
2023-02-11T12:32:02.418Z,103470.31
2023-02-11T12:34:40.089Z,103456.50
2023-02-11T12:37:37.827Z,103462.19
2023-02-11T12:40:10.032Z,103475.88
2023-02-11T12:43:02.802Z,103468.81
2023-02-11T12:45:41.058Z,103484.81
2023-02-11T12:48:44.796Z,103476.88
2023-02-11T12:51:39.390Z,103476.78
2023-02-11T12:54:20.982Z,103482.03
2023-02-11T12:56:56.778Z,103476.06
2023-02-11T13:00:01.960Z,103472.94
2023-02-11T13:02:40.763Z,103455.16
2023-02-11T13:05:23.073Z,103449.38
2023-02-11T13:07:51.764Z,103462.00
2023-02-11T13:10:30.235Z,103449.56
2023-02-11T13:12:59.003Z,103455.63
2023-02-11T13:15:25.615Z,103460.78
2023-02-11T13:18:11.096Z,103452.03
2023-02-11T13:20:46.153Z,103458.25
2023-02-11T13:23:31.730Z,103472.47
2023-02-11T13:26:08.290Z,103450.41
2023-02-11T13:29:15.609Z,103457.59
2023-02-11T13:31:42.086Z,103446.59
2023-02-11T13:34:27.149Z,103454.81
2023-02-11T13:36:55.596Z,103450.72
2023-02-11T13:39:22.564Z,103458.22
2023-02-11T13:41:52.194Z,103459.63
2023-02-11T13:44:23.496Z,103453.56
2023-02-11T13:47:02.130Z,103458.81
2023-02-11T13:49:34.212Z,103455.66
2023-02-11T13:52:01.448Z,103450.00
2023-02-11T13:54:38.947Z,103446.16
2023-02-11T13:57:20.361Z,103455.72
2023-02-11T13:59:51.951Z,103442.06
2023-02-11T14:02:31.511Z,103441.22
2023-02-11T14:05:04.097Z,103453.31
2023-02-11T14:07:32.788Z,103460.59
2023-02-11T14:09:59.132Z,103455.75
2023-02-11T14:12:32.976Z,103460.00
2023-02-11T14:15:18.114Z,103450.34
2023-02-11T14:17:44.638Z,103474.00
2023-02-11T14:20:36.707Z,103470.44
2023-02-11T14:23:04.336Z,103454.31
2023-02-11T14:25:31.067Z,103456.63
2023-02-11T14:28:06.783Z,103456.63
2023-02-11T14:30:50.253Z,103462.03
2023-02-11T14:33:50.845Z,103469.22
2023-02-11T14:36:52.384Z,103458.25
2023-02-11T14:39:49.618Z,103462.84
2023-02-11T14:42:22.749Z,103476.09
2023-02-11T14:44:51.753Z,103467.53
2023-02-11T14:47:40.886Z,103475.97
2023-02-11T14:50:15.748Z,103463.66
2023-02-11T14:52:44.140Z,103474.16
2023-02-11T14:55:40.390Z,103479.84
2023-02-11T14:58:21.689Z,103478.78
2023-02-11T15:01:02.687Z,103466.00
2023-02-11T15:03:35.860Z,103480.28
2023-02-11T15:06:18.602Z,103468.03
2023-02-11T15:08:51.163Z,103480.19
2023-02-11T15:11:20.917Z,103469.16
2023-02-11T15:13:49.071Z,103485.59
2023-02-11T15:16:19.786Z,103476.47
2023-02-11T15:19:07.103Z,103472.50
2023-02-11T15:21:36.389Z,103487.00
2023-02-11T15:24:06.464Z,103490.16
2023-02-11T15:26:33.620Z,103485.63
2023-02-11T15:29:00.279Z,103484.69
2023-02-11T15:31:27.995Z,103479.19
2023-02-11T15:33:54.643Z,103492.69
2023-02-11T15:36:24.422Z,103493.50
2023-02-11T15:39:16.262Z,103504.41
2023-02-11T15:41:42.649Z,103496.44
2023-02-11T15:44:30.425Z,103498.22
2023-02-11T15:46:57.395Z,103516.72
2023-02-11T15:49:24.829Z,103486.72
2023-02-11T15:51:53.900Z,103505.66
2023-02-11T15:54:29.079Z,103520.28
2023-02-11T15:57:04.198Z,103501.81
2023-02-11T15:59:37.372Z,103521.69
2023-02-11T16:02:27.462Z,103512.59
2023-02-11T16:04:56.276Z,103509.09
2023-02-11T16:07:42.650Z,103518.59
2023-02-11T16:10:43.267Z,103512.97
2023-02-11T16:13:09.795Z,103501.63
2023-02-11T16:15:46.750Z,103510.34
2023-02-11T16:18:37.925Z,103511.00
2023-02-11T16:21:07.555Z,103514.88
2023-02-11T16:23:40.448Z,103507.81
2023-02-11T16:26:28.679Z,103510.97
2023-02-11T16:29:06.877Z,103514.69
2023-02-11T16:31:34.335Z,103517.56
2023-02-11T16:34:00.861Z,103513.41
2023-02-11T16:36:27.346Z,103528.41
2023-02-11T16:38:53.763Z,103531.84
2023-02-11T16:41:20.186Z,103541.88
2023-02-11T16:43:46.678Z,103542.41
2023-02-11T16:46:16.418Z,103545.44
2023-02-11T16:48:43.257Z,103532.88
2023-02-11T16:51:11.974Z,103534.34
2023-02-11T16:53:38.613Z,103543.00
2023-02-11T16:56:06.299Z,103547.41
2023-02-11T16:58:32.838Z,103552.91
2023-02-11T17:00:59.507Z,103565.72
2023-02-11T17:03:29.771Z,103559.09
2023-02-11T17:05:56.326Z,103563.50
2023-02-11T17:08:22.751Z,103562.13
2023-02-11T17:10:52.604Z,103558.91
2023-02-11T17:13:19.270Z,103556.81
2023-02-11T17:15:45.797Z,103553.88
2023-02-11T17:18:13.306Z,103564.56
2023-02-11T17:20:40.367Z,103579.16
2023-02-11T17:23:06.739Z,103553.31
2023-02-11T17:25:33.067Z,103562.56
2023-02-11T17:27:59.485Z,103566.41
2023-02-11T17:30:25.861Z,103572.44
2023-02-11T17:32:52.195Z,103567.34
2023-02-11T17:35:18.585Z,103577.81
2023-02-11T17:37:44.911Z,103584.81
2023-02-11T17:40:12.221Z,103573.53
2023-02-11T17:42:38.579Z,103576.28
2023-02-11T17:45:05.321Z,103567.97
2023-02-11T17:47:31.794Z,103581.50
2023-02-11T17:49:58.207Z,103584.81
2023-02-11T17:52:24.684Z,103576.66
2023-02-11T17:54:51.003Z,103591.50
2023-02-11T17:57:17.400Z,103600.06
2023-02-11T17:59:43.999Z,103602.56
2023-02-11T18:02:13.442Z,103595.22
2023-02-11T18:04:39.827Z,103595.34
2023-02-11T18:07:06.864Z,103604.84
2023-02-11T18:09:40.527Z,103609.69
2023-02-11T18:12:07.759Z,103601.41
2023-02-11T18:14:34.268Z,103608.16
2023-02-11T18:17:00.660Z,103604.25
2023-02-11T18:19:27.100Z,103603.44
2023-02-11T18:21:53.430Z,103608.41
2023-02-11T18:24:19.740Z,103602.63
2023-02-11T18:26:46.142Z,103618.88
2023-02-11T18:29:12.504Z,103607.25
2023-02-11T18:31:38.901Z,103628.38
2023-02-11T18:34:06.747Z,103621.03
2023-02-11T18:36:33.816Z,103624.38
2023-02-11T18:39:00.133Z,103627.31
2023-02-11T18:41:26.967Z,103623.19
2023-02-11T18:43:53.420Z,103625.69
2023-02-11T18:46:19.863Z,103630.66
2023-02-11T18:48:46.233Z,103633.25
2023-02-11T18:51:15.556Z,103617.63
2023-02-11T18:53:42.747Z,103638.16
2023-02-11T18:56:15.529Z,103641.38
2023-02-11T18:58:41.948Z,103646.84
2023-02-11T19:01:18.895Z,103651.25
2023-02-11T19:03:45.523Z,103644.72
2023-02-11T19:06:25.747Z,103659.19
2023-02-11T19:08:53.272Z,103629.19
2023-02-11T19:11:20.063Z,103663.72
2023-02-11T19:13:46.837Z,103652.94
2023-02-11T19:16:13.579Z,103655.31
2023-02-11T19:18:40.001Z,103649.50
2023-02-11T19:21:08.579Z,103669.66
2023-02-11T19:23:36.720Z,103660.66
2023-02-11T19:26:03.828Z,103664.22
2023-02-11T19:28:31.669Z,103670.41
2023-02-11T19:30:58.298Z,103670.66
2023-02-11T19:33:24.662Z,103677.28
2023-02-11T19:35:51.287Z,103661.66
2023-02-11T19:38:17.752Z,103680.16
2023-02-11T19:40:44.100Z,103682.19
2023-02-11T19:43:10.435Z,103681.59
2023-02-11T19:45:37.608Z,103674.25
2023-02-11T19:48:04.157Z,103693.72
2023-02-11T19:50:30.537Z,103697.16
2023-02-11T19:52:56.863Z,103696.44
2023-02-11T19:55:23.263Z,103700.72
2023-02-11T19:57:49.601Z,103701.91
2023-02-11T20:00:16.328Z,103693.69
2023-02-11T20:02:42.748Z,103696.31
2023-02-11T20:05:09.268Z,103705.13
2023-02-11T20:07:35.662Z,103713.66
2023-02-11T20:10:02.134Z,103707.94
2023-02-11T20:12:28.594Z,103724.13
2023-02-11T20:14:54.966Z,103719.47
2023-02-11T20:17:21.293Z,103718.63
2023-02-11T20:19:47.641Z,103709.63
2023-02-11T20:22:14.001Z,103731.59
2023-02-11T20:24:40.337Z,103720.69
2023-02-11T20:27:06.705Z,103722.44
2023-02-11T20:29:33.044Z,103719.00
2023-02-11T20:31:59.511Z,103728.63
2023-02-11T20:34:25.923Z,103732.19
2023-02-11T20:36:52.480Z,103736.84
2023-02-11T20:39:20.267Z,103732.91
2023-02-11T20:41:46.620Z,103730.19
2023-02-11T20:44:13.709Z,103746.44
2023-02-11T20:46:43.110Z,103754.88
2023-02-11T20:49:11.839Z,103752.63
2023-02-11T20:51:38.374Z,103743.47
2023-02-11T20:54:05.412Z,103743.81
2023-02-11T20:56:35.368Z,103756.63
2023-02-11T20:59:02.917Z,103757.34
2023-02-11T21:01:32.359Z,103757.00
2023-02-11T21:04:13.904Z,103758.78
2023-02-11T21:06:43.339Z,103761.72
2023-02-11T21:09:13.186Z,103767.44
2023-02-11T21:11:40.167Z,103753.88
2023-02-11T21:14:06.937Z,103764.69
2023-02-11T21:16:33.729Z,103773.97
2023-02-11T21:19:00.101Z,103765.41
2023-02-11T21:21:26.568Z,103773.50
2023-02-11T21:23:53.152Z,103770.28
2023-02-11T21:26:19.595Z,103779.66
2023-02-11T21:28:46.063Z,103779.03
2023-02-11T21:31:28.291Z,103765.75
2023-02-11T21:33:55.643Z,103768.44
2023-02-11T21:36:23.396Z,103776.28
2023-02-11T21:38:49.778Z,103793.53
2023-02-11T21:41:16.992Z,103784.00
2023-02-11T21:43:43.492Z,103780.56
2023-02-11T21:46:12.688Z,103777.97
2023-02-11T21:48:39.270Z,103765.00
2023-02-11T21:51:07.838Z,103785.78
2023-02-11T21:53:34.985Z,103784.25
2023-02-11T21:56:03.669Z,103784.13
2023-02-11T21:58:30.140Z,103786.00
2023-02-11T22:00:56.605Z,103777.47
2023-02-11T22:03:23.154Z,103782.94
2023-02-11T22:05:49.587Z,103781.25
2023-02-11T22:08:18.002Z,103773.66
2023-02-11T22:10:45.625Z,103795.03
2023-02-11T22:13:12.088Z,103784.09
2023-02-11T22:15:39.167Z,103786.00
2023-02-11T22:18:05.611Z,103796.81
2023-02-11T22:20:32.024Z,103791.94
2023-02-11T22:22:58.579Z,103806.53
2023-02-11T22:25:25.152Z,103805.59
2023-02-11T22:27:52.070Z,103796.53
2023-02-11T22:30:18.588Z,103795.72
2023-02-11T22:32:45.130Z,103807.59
2023-02-11T22:35:11.550Z,103805.00
2023-02-11T22:37:37.983Z,103799.97
2023-02-11T22:40:04.740Z,103797.47
2023-02-11T22:42:31.246Z,103800.34
2023-02-11T22:44:57.654Z,103799.50
2023-02-11T22:47:24.129Z,103800.78
2023-02-11T22:49:50.575Z,103793.50
2023-02-11T22:52:16.965Z,103804.56
2023-02-11T22:54:43.402Z,103796.03
2023-02-11T22:57:09.836Z,103787.06
2023-02-11T22:59:36.282Z,103790.41
2023-02-11T23:02:02.868Z,103797.50
2023-02-11T23:04:29.321Z,103791.09
2023-02-11T23:06:55.661Z,103806.50
2023-02-11T23:09:22.141Z,103795.94
2023-02-11T23:11:48.617Z,103796.50
2023-02-11T23:14:15.040Z,103797.91
2023-02-11T23:16:41.501Z,103804.56
2023-02-11T23:19:10.179Z,103800.41
2023-02-11T23:21:38.463Z,103796.34
2023-02-11T23:24:08.548Z,103794.31
2023-02-11T23:26:37.092Z,103800.44
2023-02-11T23:29:03.730Z,103798.28
2023-02-11T23:31:33.603Z,103813.72
2023-02-11T23:34:01.161Z,103817.50
2023-02-11T23:36:27.675Z,103809.59
2023-02-11T23:38:54.109Z,103813.13
2023-02-11T23:41:21.705Z,103820.44
2023-02-11T23:43:54.762Z,103820.06
2023-02-11T23:46:22.305Z,103811.31
2023-02-11T23:48:49.864Z,103814.34
2023-02-11T23:51:16.551Z,103814.25
2023-02-11T23:53:43.336Z,103811.44
2023-02-11T23:56:13.416Z,103826.44
2023-02-11T23:58:39.793Z,103824.25
